createdAt,value
2018-09-17T00:00:09.492Z,12.40
2018-09-17T00:02:37.058Z,12.30
2018-09-17T00:05:04.682Z,12.30
2018-09-17T00:07:32.247Z,12.20
2018-09-17T00:09:59.822Z,12.20
2018-09-17T00:12:27.421Z,12.20
2018-09-17T00:14:54.989Z,12.30
2018-09-17T00:17:22.560Z,12.20
2018-09-17T00:19:50.152Z,12.20
2018-09-17T00:22:17.717Z,12.10
2018-09-17T00:24:45.349Z,12.10
2018-09-17T00:27:12.929Z,12.00
2018-09-17T00:29:40.494Z,12.10
2018-09-17T00:32:08.090Z,12.10
2018-09-17T00:34:36.419Z,11.90
2018-09-17T00:37:04.295Z,11.90
2018-09-17T00:39:31.879Z,11.90
2018-09-17T00:41:59.449Z,11.80
2018-09-17T00:44:27.499Z,11.80
2018-09-17T00:46:55.077Z,11.70
2018-09-17T00:49:22.641Z,11.70
2018-09-17T00:51:50.241Z,11.80
2018-09-17T00:54:17.807Z,11.90
2018-09-17T00:56:45.426Z,11.90
2018-09-17T00:59:12.995Z,11.70
2018-09-17T01:01:40.560Z,11.60
2018-09-17T01:04:08.153Z,11.50
2018-09-17T01:06:35.716Z,11.40
2018-09-17T01:09:03.332Z,11.40
2018-09-17T01:11:31.015Z,11.30
2018-09-17T01:13:58.589Z,11.30
2018-09-17T01:16:26.964Z,11.20
2018-09-17T01:18:55.290Z,11.20
2018-09-17T01:21:22.857Z,11.20
2018-09-17T01:23:50.450Z,11.20
2018-09-17T01:26:18.032Z,11.10
2018-09-17T01:28:45.658Z,11.10
2018-09-17T01:31:13.226Z,11.10
2018-09-17T01:33:40.787Z,11.00
2018-09-17T01:36:08.842Z,11.00
2018-09-17T01:38:36.410Z,11.00
2018-09-17T01:41:03.977Z,11.10
2018-09-17T01:43:31.573Z,11.10
2018-09-17T01:45:59.915Z,11.20
2018-09-17T01:48:27.877Z,11.20
2018-09-17T01:50:55.449Z,11.20
2018-09-17T01:53:23.021Z,11.10
2018-09-17T01:55:50.612Z,11.00
2018-09-17T01:58:18.180Z,11.10
2018-09-17T02:00:45.776Z,11.10
2018-09-17T02:03:13.339Z,11.00
2018-09-17T02:05:40.907Z,11.00
2018-09-17T02:08:08.520Z,10.90
2018-09-17T02:10:36.082Z,10.90
2018-09-17T02:13:04.111Z,11.00
2018-09-17T02:15:31.671Z,10.90
2018-09-17T02:17:59.241Z,10.90
2018-09-17T02:20:26.833Z,10.80
2018-09-17T02:22:55.166Z,10.90
2018-09-17T02:25:22.779Z,10.80
2018-09-17T02:27:50.346Z,10.80
2018-09-17T02:30:17.914Z,10.90
2018-09-17T02:32:46.403Z,10.80
2018-09-17T02:35:13.974Z,10.80
2018-09-17T02:37:41.549Z,10.70
2018-09-17T02:40:09.143Z,10.60
2018-09-17T02:42:36.706Z,10.50
2018-09-17T02:45:05.081Z,10.40
2018-09-17T02:47:32.651Z,10.40
2018-09-17T02:50:00.988Z,10.30
2018-09-17T02:52:28.586Z,10.30
2018-09-17T02:54:56.148Z,10.30
2018-09-17T02:57:23.781Z,10.20
2018-09-17T02:59:51.344Z,10.20
2018-09-17T03:02:18.909Z,10.20
2018-09-17T03:04:46.510Z,10.10
2018-09-17T03:07:14.849Z,10.20
2018-09-17T03:09:42.466Z,10.20
2018-09-17T03:12:10.034Z,10.30
2018-09-17T03:14:37.602Z,10.30
2018-09-17T03:17:05.195Z,10.20
2018-09-17T03:19:32.760Z,10.20
2018-09-17T03:22:00.369Z,10.10
2018-09-17T03:24:28.287Z,10.10
2018-09-17T03:26:55.845Z,10.10
2018-09-17T03:29:23.809Z,10.00
2018-09-17T03:31:51.377Z,10.00
2018-09-17T03:34:18.950Z,9.90
2018-09-17T03:36:46.549Z,9.90
2018-09-17T03:39:14.885Z,10.10
2018-09-17T03:41:42.459Z,10.00
2018-09-17T03:44:10.061Z,10.00
2018-09-17T03:46:37.690Z,10.00
2018-09-17T03:49:05.187Z,9.90
2018-09-17T03:51:32.806Z,9.90
2018-09-17T03:54:00.409Z,9.90
2018-09-17T03:56:27.982Z,9.80
2018-09-17T03:58:55.586Z,9.80
2018-09-17T04:01:23.151Z,9.70
2018-09-17T04:03:50.722Z,9.70
2018-09-17T04:06:18.312Z,9.60
2018-09-17T04:08:45.881Z,9.60
2018-09-17T04:11:13.504Z,9.50
2018-09-17T04:13:41.073Z,9.50
2018-09-17T04:16:09.405Z,9.40
2018-09-17T04:18:37.015Z,9.40
2018-09-17T04:21:05.351Z,9.40
2018-09-17T04:23:32.949Z,9.30
2018-09-17T04:26:00.638Z,9.40
2018-09-17T04:28:28.208Z,9.40
2018-09-17T04:30:55.768Z,9.40
2018-09-17T04:33:23.390Z,9.40
2018-09-17T04:35:50.964Z,9.40
2018-09-17T04:38:18.587Z,9.40
2018-09-17T04:40:46.916Z,9.60
2018-09-17T04:43:15.250Z,9.60
2018-09-17T04:45:42.817Z,9.60
2018-09-17T04:48:10.424Z,9.50
2018-09-17T04:50:38.757Z,9.40
2018-09-17T04:53:06.327Z,9.40
2018-09-17T04:55:33.925Z,9.30
2018-09-17T04:58:01.503Z,9.50
2018-09-17T05:00:29.115Z,9.60
2018-09-17T05:02:56.683Z,9.60
2018-09-17T05:05:24.253Z,9.60
2018-09-17T05:07:52.233Z,9.50
2018-09-17T05:10:20.571Z,9.80
2018-09-17T05:12:48.135Z,9.70
2018-09-17T05:15:16.096Z,9.70
2018-09-17T05:17:43.666Z,9.60
2018-09-17T05:20:11.238Z,9.50
2018-09-17T05:22:38.869Z,9.50
2018-09-17T05:25:06.434Z,9.40
2018-09-17T05:27:34.001Z,9.50
2018-09-17T05:30:01.631Z,9.40
2018-09-17T05:32:29.580Z,9.40
2018-09-17T05:34:57.912Z,9.30
2018-09-17T05:37:25.553Z,9.30
2018-09-17T05:39:53.124Z,9.30
2018-09-17T05:42:21.015Z,9.30
2018-09-17T05:44:49.238Z,9.30
2018-09-17T05:47:17.569Z,9.20
2018-09-17T05:49:45.442Z,9.20
2018-09-17T05:52:14.452Z,9.20
2018-09-17T05:54:42.022Z,9.20
2018-09-17T05:57:09.589Z,9.10
2018-09-17T05:59:37.233Z,9.30
2018-09-17T06:02:04.749Z,9.30
2018-09-17T06:04:33.470Z,9.30
2018-09-17T06:07:01.060Z,9.20
2018-09-17T06:09:28.602Z,9.20
2018-09-17T06:11:56.300Z,9.10
2018-09-17T06:14:23.786Z,9.10
2018-09-17T06:16:51.351Z,9.10
2018-09-17T06:19:19.969Z,9.20
2018-09-17T06:21:47.540Z,9.20
2018-09-17T06:24:15.105Z,9.30
2018-09-17T06:26:42.731Z,9.40
2018-09-17T06:29:10.522Z,9.50
2018-09-17T06:31:38.179Z,9.70
2018-09-17T06:34:05.751Z,9.80
2018-09-17T06:36:33.318Z,9.90
2018-09-17T06:39:01.076Z,10.10
2018-09-17T06:41:28.664Z,10.10
2018-09-17T06:43:56.206Z,10.30
2018-09-17T06:46:24.971Z,10.40
2018-09-17T06:48:52.543Z,10.40
2018-09-17T06:51:20.143Z,10.60
2018-09-17T06:53:47.868Z,10.60
2018-09-17T06:56:15.339Z,10.80
2018-09-17T06:58:42.914Z,10.90
2018-09-17T07:01:10.893Z,10.90
2018-09-17T07:03:38.477Z,11.10
2018-09-17T07:06:06.089Z,11.10
2018-09-17T07:08:33.921Z,11.20
2018-09-17T07:11:01.504Z,11.20
2018-09-17T07:13:29.072Z,11.40
2018-09-17T07:15:57.124Z,11.50
2018-09-17T07:18:24.700Z,11.50
2018-09-17T07:20:52.665Z,11.50
2018-09-17T07:23:20.259Z,11.50
2018-09-17T07:25:47.826Z,11.60
2018-09-17T07:28:15.974Z,11.60
2018-09-17T07:30:43.545Z,11.70
2018-09-17T07:33:11.112Z,11.70
2018-09-17T07:35:38.766Z,11.80
2018-09-17T07:38:06.333Z,11.90
2018-09-17T07:40:33.925Z,12.10
2018-09-17T07:43:01.497Z,12.30
2018-09-17T07:45:29.071Z,12.40
2018-09-17T07:47:56.738Z,12.50
2018-09-17T07:50:24.302Z,12.60
2018-09-17T07:52:51.880Z,12.70
2018-09-17T07:55:19.485Z,12.80
2018-09-17T07:57:47.824Z,12.90
2018-09-17T08:00:15.400Z,12.90
2018-09-17T08:02:43.054Z,13.00
2018-09-17T08:05:10.627Z,13.10
2018-09-17T08:07:38.474Z,13.20
2018-09-17T08:10:06.103Z,13.30
2018-09-17T08:12:33.680Z,13.60
2018-09-17T08:15:01.253Z,13.80
2018-09-17T08:17:28.873Z,14.10
2018-09-17T08:19:57.211Z,14.30
2018-09-17T08:22:24.778Z,14.30
2018-09-17T08:24:52.441Z,14.40
2018-09-17T08:27:20.079Z,14.60
2018-09-17T08:29:47.650Z,14.70
2018-09-17T08:32:15.266Z,14.70
2018-09-17T08:34:43.609Z,14.90
2018-09-17T08:37:11.234Z,14.90
2018-09-17T08:39:38.803Z,15.00
2018-09-17T08:42:06.686Z,15.10
2018-09-17T08:44:35.385Z,15.30
2018-09-17T08:47:02.955Z,15.40
2018-09-17T08:49:30.517Z,15.50
2018-09-17T08:51:58.122Z,15.70
2018-09-17T08:54:25.686Z,15.80
2018-09-17T08:56:53.316Z,15.90
2018-09-17T08:59:20.875Z,16.10
2018-09-17T09:01:48.450Z,16.20
2018-09-17T09:04:16.832Z,16.60
2018-09-17T09:06:44.406Z,16.60
2018-09-17T09:09:12.001Z,16.80
2018-09-17T09:11:39.634Z,16.90
2018-09-17T09:14:07.962Z,17.20
2018-09-17T09:16:35.659Z,17.20
2018-09-17T09:19:04.001Z,17.50
2018-09-17T09:21:31.565Z,17.50
2018-09-17T09:23:59.198Z,17.70
2018-09-17T09:26:26.768Z,17.90
2018-09-17T09:28:54.332Z,18.00
2018-09-17T09:31:21.934Z,18.20
2018-09-17T09:33:49.498Z,18.30
2018-09-17T09:36:17.064Z,18.40
2018-09-17T09:38:45.923Z,18.50
2018-09-17T09:41:13.484Z,18.70
2018-09-17T09:43:41.042Z,18.80
2018-09-17T09:46:09.214Z,19.00
2018-09-17T09:48:36.769Z,19.20
2018-09-17T09:51:04.330Z,19.30
2018-09-17T09:53:31.936Z,19.50
2018-09-17T09:56:00.268Z,19.80
2018-09-17T09:58:27.826Z,19.70
2018-09-17T10:00:56.017Z,19.90
2018-09-17T10:03:23.579Z,20.00
2018-09-17T10:05:51.439Z,20.10
2018-09-17T10:08:19.492Z,20.30
2018-09-17T10:10:47.047Z,20.40
2018-09-17T10:13:33.114Z,20.60
2018-09-17T10:16:00.682Z,20.80
2018-09-17T10:18:40.487Z,20.90
2018-09-17T10:21:08.052Z,21.00
2018-09-17T10:23:35.614Z,21.20
2018-09-17T10:26:04.190Z,21.40
2018-09-17T10:28:31.755Z,21.60
2018-09-17T10:30:59.314Z,21.80
2018-09-17T10:33:26.898Z,21.90
2018-09-17T10:35:54.515Z,22.00
2018-09-17T10:38:22.072Z,22.30
2018-09-17T10:40:49.633Z,22.40
2018-09-17T10:43:17.226Z,22.50
2018-09-17T10:45:44.790Z,22.60
2018-09-17T10:48:12.803Z,22.80
2018-09-17T10:50:40.369Z,22.90
2018-09-17T10:53:07.924Z,23.10
2018-09-17T10:55:35.538Z,23.40
2018-09-17T10:58:03.103Z,23.60
2018-09-17T11:00:30.659Z,23.70
2018-09-17T11:02:58.624Z,23.70
2018-09-17T11:05:26.187Z,23.90
2018-09-17T11:07:53.744Z,24.00
2018-09-17T11:10:21.336Z,24.00
2018-09-17T11:12:48.893Z,24.00
2018-09-17T11:15:16.504Z,24.10
2018-09-17T11:17:44.109Z,24.10
2018-09-17T11:20:11.623Z,24.30
2018-09-17T11:22:39.230Z,24.40
2018-09-17T11:25:06.817Z,24.40
2018-09-17T11:27:34.355Z,24.50
2018-09-17T11:30:02.303Z,24.50
2018-09-17T11:32:29.860Z,24.60
2018-09-17T11:34:57.423Z,24.60
2018-09-17T11:37:25.011Z,24.70
2018-09-17T11:39:52.567Z,24.70
2018-09-17T11:42:20.214Z,24.80
2018-09-17T11:44:47.777Z,24.80
2018-09-17T11:47:15.336Z,24.90
2018-09-17T11:52:26.115Z,24.90
2018-09-17T11:54:53.676Z,25.00
2018-09-17T11:57:21.232Z,25.10
2018-09-17T11:59:48.839Z,25.20
2018-09-17T12:02:16.409Z,25.20
2018-09-17T12:04:43.959Z,25.30
2018-09-17T12:07:11.569Z,25.30
2018-09-17T12:09:39.127Z,25.30
2018-09-17T12:12:08.045Z,25.50
2018-09-17T12:14:36.733Z,25.60
2018-09-17T12:17:04.296Z,25.60
2018-09-17T12:19:31.865Z,25.60
2018-09-17T12:22:00.647Z,25.70
2018-09-17T12:24:28.211Z,25.70
2018-09-17T12:26:55.771Z,25.80
2018-09-17T12:29:23.357Z,25.90
2018-09-17T12:31:50.922Z,25.90
2018-09-17T12:34:19.081Z,26.00
2018-09-17T12:36:46.633Z,26.20
2018-09-17T12:39:14.189Z,26.20
2018-09-17T12:41:42.155Z,26.20
2018-09-17T12:44:09.724Z,26.30
2018-09-17T12:46:37.286Z,26.30
2018-09-17T12:49:05.351Z,26.40
2018-09-17T12:51:32.910Z,26.50
2018-09-17T12:54:00.482Z,26.70
2018-09-17T12:56:28.649Z,26.80
2018-09-17T12:58:56.208Z,26.80
2018-09-17T13:01:23.758Z,26.90
2018-09-17T13:03:51.362Z,27.00
2018-09-17T13:06:18.921Z,27.00
2018-09-17T13:08:46.477Z,27.00
2018-09-17T13:11:14.094Z,27.10
2018-09-17T13:13:41.887Z,27.20
2018-09-17T13:16:09.449Z,27.40
2018-09-17T13:18:37.086Z,27.40
2018-09-17T13:21:04.646Z,27.40
2018-09-17T13:23:32.213Z,27.50
2018-09-17T13:25:59.825Z,27.50
2018-09-17T13:28:27.382Z,27.50
2018-09-17T13:30:54.950Z,27.60
2018-09-17T13:33:23.003Z,27.60
2018-09-17T13:35:50.552Z,27.60
2018-09-17T13:38:18.116Z,27.70
2018-09-17T13:40:46.654Z,27.70
2018-09-17T13:43:14.211Z,27.80
2018-09-17T13:45:41.783Z,27.70
2018-09-17T13:48:09.788Z,27.80
2018-09-17T13:50:37.360Z,27.70
2018-09-17T13:53:05.002Z,27.70
2018-09-17T13:55:32.887Z,27.70
2018-09-17T13:58:00.460Z,27.70
2018-09-17T14:00:28.009Z,27.70
2018-09-17T14:02:56.278Z,27.90
2018-09-17T14:05:23.850Z,28.10
2018-09-17T14:07:51.758Z,28.10
2018-09-17T14:10:19.453Z,28.10
2018-09-17T14:12:47.632Z,28.10
2018-09-17T14:15:15.429Z,28.10
2018-09-17T14:17:43.488Z,28.00
2018-09-17T14:20:11.044Z,28.00
2018-09-17T14:22:38.608Z,27.90
2018-09-17T14:25:06.204Z,28.00
2018-09-17T14:27:33.756Z,27.90
2018-09-17T14:30:01.392Z,28.00
2018-09-17T14:32:28.945Z,28.10
2018-09-17T14:34:56.821Z,28.10
2018-09-17T14:37:24.459Z,28.20
2018-09-17T14:39:51.997Z,28.20
2018-09-17T14:42:19.554Z,28.30
2018-09-17T14:44:47.941Z,28.40
2018-09-17T14:47:15.499Z,28.40
2018-09-17T14:49:43.822Z,28.50
2018-09-17T14:52:12.436Z,28.40
2018-09-17T14:54:40.102Z,28.50
2018-09-17T14:57:07.554Z,28.50
2018-09-17T14:59:35.444Z,28.60
2018-09-17T15:02:03.773Z,28.80
2018-09-17T15:04:31.347Z,28.80
2018-09-17T15:06:59.012Z,28.90
2018-09-17T15:09:26.585Z,28.90
2018-09-17T15:11:54.129Z,28.90
2018-09-17T15:14:30.384Z,29.00
2018-09-17T15:16:55.518Z,29.00
2018-09-17T15:19:23.072Z,29.00
2018-09-17T15:21:51.125Z,29.00
2018-09-17T15:24:18.703Z,29.20
2018-09-17T15:26:46.260Z,29.20
2018-09-17T15:29:13.851Z,29.20
2018-09-17T15:31:41.440Z,29.20
2018-09-17T15:34:09.067Z,29.30
2018-09-17T15:36:37.828Z,29.40
2018-09-17T15:39:05.643Z,29.40
2018-09-17T15:41:33.281Z,29.40
2018-09-17T15:44:01.583Z,29.40
2018-09-17T15:46:29.121Z,29.40
2018-09-17T15:48:56.727Z,29.40
2018-09-17T15:51:24.286Z,29.50
2018-09-17T15:53:51.846Z,29.50
2018-09-17T15:56:19.512Z,29.50
2018-09-17T15:58:47.020Z,29.50
2018-09-17T16:01:14.578Z,29.50
2018-09-17T16:03:42.349Z,29.40
2018-09-17T16:06:09.909Z,29.60
2018-09-17T16:08:37.468Z,29.50
2018-09-17T16:11:05.632Z,29.50
2018-09-17T16:13:33.191Z,29.60
2018-09-17T16:16:00.770Z,29.50
2018-09-17T16:18:28.627Z,29.40
2018-09-17T16:20:56.188Z,29.30
2018-09-17T16:23:23.755Z,29.20
2018-09-17T16:25:52.227Z,29.20
2018-09-17T16:28:19.794Z,29.10
2018-09-17T16:30:47.360Z,29.10
2018-09-17T16:33:14.991Z,28.90
2018-09-17T16:35:42.541Z,28.70
2018-09-17T16:38:10.096Z,28.70
2018-09-17T16:40:37.748Z,28.60
2018-09-17T16:43:06.070Z,28.30
2018-09-17T16:45:33.637Z,28.30
2018-09-17T16:48:01.235Z,28.10
2018-09-17T16:50:28.809Z,28.00
2018-09-17T16:52:57.232Z,27.80
2018-09-17T16:55:24.748Z,27.80
2018-09-17T16:57:53.074Z,27.50
2018-09-17T17:00:20.665Z,27.50
2018-09-17T17:02:48.326Z,27.40
2018-09-17T17:05:15.958Z,27.40
2018-09-17T17:07:43.473Z,27.20
2018-09-17T17:10:11.289Z,27.10
2018-09-17T17:12:38.839Z,27.00
2018-09-17T17:15:06.387Z,26.90
2018-09-17T17:17:33.994Z,26.80
2018-09-17T17:20:01.557Z,26.70
2018-09-17T17:22:29.119Z,26.50
2018-09-17T17:24:56.730Z,26.40
2018-09-17T17:27:24.285Z,26.20
2018-09-17T17:29:51.840Z,26.10
2018-09-17T17:32:19.545Z,25.90
2018-09-17T17:34:47.105Z,25.70
2018-09-17T17:37:14.661Z,25.50
2018-09-17T17:39:42.426Z,25.40
2018-09-17T17:42:09.851Z,25.20
2018-09-17T17:44:37.378Z,25.10
2018-09-17T17:47:05.333Z,24.90
2018-09-17T17:49:32.885Z,24.90
2018-09-17T17:52:00.490Z,24.70
2018-09-17T17:54:28.115Z,24.60
2018-09-17T17:56:55.646Z,24.40
2018-09-17T17:59:23.206Z,24.20
2018-09-17T18:01:51.820Z,24.00
2018-09-17T18:04:19.386Z,23.90
2018-09-17T18:06:46.977Z,23.70
2018-09-17T18:09:14.563Z,23.60
2018-09-17T18:11:42.882Z,23.30
2018-09-17T18:14:10.433Z,23.20
2018-09-17T18:16:38.046Z,23.10
2018-09-17T18:19:06.367Z,22.80
2018-09-17T18:21:33.945Z,22.80
2018-09-17T18:24:01.568Z,22.70
2018-09-17T18:26:29.140Z,22.60
2018-09-17T18:28:56.703Z,22.50
2018-09-17T18:31:24.909Z,22.40
2018-09-17T18:33:52.472Z,22.20
2018-09-17T18:36:20.073Z,22.10
2018-09-17T18:38:47.663Z,22.00
2018-09-17T18:41:15.968Z,21.90
2018-09-17T18:43:44.043Z,21.90
2018-09-17T18:46:11.604Z,21.80
2018-09-17T18:48:39.181Z,21.60
2018-09-17T18:51:07.381Z,21.50
2018-09-17T18:53:34.902Z,21.30
2018-09-17T18:56:02.702Z,21.20
2018-09-17T18:58:30.288Z,21.10
2018-09-17T19:00:57.858Z,21.00
2018-09-17T19:03:25.463Z,20.90
2018-09-17T19:05:53.058Z,20.70
2018-09-17T19:08:20.590Z,20.60
2018-09-17T19:10:48.234Z,20.70
2018-09-17T19:13:15.783Z,20.60
2018-09-17T19:15:43.343Z,20.40
2018-09-17T19:18:11.047Z,20.30
2018-09-17T19:20:38.706Z,20.20
2018-09-17T19:23:11.882Z,20.10
2018-09-17T19:25:40.481Z,20.00
2018-09-17T19:28:08.083Z,19.90
2018-09-17T19:30:35.862Z,19.80
2018-09-17T19:33:03.489Z,19.70
2018-09-17T19:35:31.051Z,19.60
2018-09-17T19:37:58.661Z,19.50
2018-09-17T19:40:26.306Z,19.40
2018-09-17T19:42:53.781Z,19.30
2018-09-17T19:45:21.348Z,19.30
2018-09-17T19:47:50.055Z,19.20
2018-09-17T19:50:17.621Z,19.10
2018-09-17T19:52:45.167Z,19.00
2018-09-17T19:55:12.777Z,19.00
2018-09-17T19:57:40.344Z,18.90
2018-09-17T20:00:08.674Z,18.70
2018-09-17T20:02:36.663Z,18.70
2018-09-17T20:05:19.159Z,18.70
2018-09-17T20:07:47.238Z,18.60
2018-09-17T20:10:14.858Z,18.50
2018-09-17T20:12:42.356Z,18.50
2018-09-17T20:15:11.140Z,18.60
2018-09-17T20:17:38.698Z,18.70
2018-09-17T20:20:06.266Z,18.60
2018-09-17T20:22:33.870Z,18.50
2018-09-17T20:25:02.202Z,18.30
2018-09-17T20:27:29.760Z,18.30
2018-09-17T20:29:57.863Z,18.20
2018-09-17T20:32:25.719Z,18.10
2018-09-17T20:34:53.279Z,18.00
2018-09-17T20:37:20.955Z,18.00
2018-09-17T20:39:48.481Z,18.00
2018-09-17T20:42:16.037Z,18.10
2018-09-17T20:44:44.127Z,18.00
2018-09-17T20:47:11.694Z,17.90
2018-09-17T20:49:39.316Z,17.80
2018-09-17T20:52:06.892Z,17.70
2018-09-17T20:54:34.455Z,17.60
2018-09-17T20:57:02.012Z,17.50
2018-09-17T20:59:29.617Z,17.40
2018-09-17T21:01:57.185Z,17.30
2018-09-17T21:04:24.745Z,17.30
2018-09-17T21:06:52.364Z,17.40
2018-09-17T21:09:20.286Z,17.30
2018-09-17T21:11:47.802Z,17.20
2018-09-17T21:14:16.708Z,17.10
2018-09-17T21:16:44.666Z,17.10
2018-09-17T21:19:12.311Z,17.00
2018-09-17T21:21:39.844Z,16.90
2018-09-17T21:24:07.402Z,16.80
2018-09-17T21:26:34.960Z,16.70
2018-09-17T21:29:03.341Z,16.60
2018-09-17T21:31:31.668Z,16.60
2018-09-17T21:33:59.239Z,16.50
2018-09-17T21:36:26.835Z,16.50
2018-09-17T21:38:54.399Z,16.50
2018-09-17T21:41:21.959Z,16.40
2018-09-17T21:43:49.600Z,16.40
2018-09-17T21:46:17.165Z,16.30
2018-09-17T21:48:44.726Z,16.30
2018-09-17T21:51:12.312Z,16.20
2018-09-17T21:53:40.640Z,16.10
2018-09-17T21:56:09.231Z,16.10
2018-09-17T21:58:36.831Z,16.00
2018-09-17T22:01:04.380Z,16.00
2018-09-17T22:03:32.328Z,15.90
2018-09-17T22:05:59.890Z,15.90
2018-09-17T22:08:27.455Z,15.90
2018-09-17T22:10:55.835Z,15.80
2018-09-17T22:13:23.394Z,16.00
2018-09-17T22:15:50.960Z,15.90
2018-09-17T22:18:18.545Z,15.80
2018-09-17T22:20:46.875Z,16.10
2018-09-17T22:23:14.481Z,16.10
2018-09-17T22:25:42.037Z,16.00
2018-09-17T22:28:09.596Z,15.90
2018-09-17T22:30:37.182Z,15.80
2018-09-17T22:33:05.528Z,15.80
2018-09-17T22:35:33.598Z,15.80
2018-09-17T22:38:01.173Z,15.70
2018-09-17T22:40:28.723Z,15.60
2018-09-17T22:42:56.320Z,15.60
2018-09-17T22:45:23.876Z,15.50
2018-09-17T22:47:51.438Z,15.40
2018-09-17T22:50:19.035Z,15.30
2018-09-17T22:52:46.602Z,15.30
2018-09-17T22:55:14.156Z,15.20
2018-09-17T22:57:42.255Z,15.20
2018-09-17T23:00:09.814Z,15.10
2018-09-17T23:02:37.381Z,15.10
2018-09-17T23:05:04.982Z,15.00
2018-09-17T23:07:32.576Z,14.90
2018-09-17T23:10:00.134Z,15.10
2018-09-17T23:12:27.723Z,15.00
2018-09-17T23:14:55.282Z,15.00
2018-09-17T23:17:22.841Z,14.90
2018-09-17T23:19:50.782Z,15.00
2018-09-17T23:22:18.342Z,15.10
2018-09-17T23:24:45.909Z,15.10
2018-09-17T23:27:13.495Z,15.00
2018-09-17T23:29:41.057Z,14.90
2018-09-17T23:32:09.022Z,14.80
2018-09-17T23:34:36.581Z,14.70
2018-09-17T23:37:04.135Z,14.70
2018-09-17T23:39:31.722Z,14.60
2018-09-17T23:41:59.276Z,14.60
2018-09-17T23:44:26.928Z,14.50
2018-09-17T23:46:54.515Z,14.50
2018-09-17T23:49:22.080Z,14.60
2018-09-17T23:51:50.021Z,14.50
2018-09-17T23:54:17.583Z,14.50
2018-09-17T23:56:45.187Z,14.60
2018-09-17T23:59:12.742Z,14.50
